sensor_id;sensor_type;location;lat;lon;timestamp;pressure;altitude;pressure_sealevel;temperature;humidity
30343;BME280;17145;49.902;8.680;'2023-06-19 01:57:52';99460;;;24;35
30343;BME280;17145;49.902;8.680;'2023-06-19 02:00:20';99470;;;24;35
30343;BME280;17145;49.902;8.680;'2023-06-19 02:02:47';99460;;;24;35
30343;BME280;17145;49.902;8.680;'2023-06-19 02:05:14';99460;;;24;34
30343;BME280;17145;49.902;8.680;'2023-06-19 02:07:42';99460;;;24;34
30343;BME280;17145;49.902;8.680;'2023-06-19 02:10:09';99460;;;24;34
30343;BME280;17145;49.902;8.680;'2023-06-19 02:12:37';99460;;;24;35
30343;BME280;17145;49.902;8.680;'2023-06-19 02:15:05';99460;;;24;34
30343;BME280;17145;49.902;8.680;'2023-06-19 02:17:33';99460;;;24;34
30343;BME280;17145;49.902;8.680;'2023-06-19 02:20:00';99460;;;24;34
30343;BME280;17145;49.902;8.680;'2023-06-19 02:22:27';99460;;;24;34
30343;BME280;17145;49.902;8.680;'2023-06-19 02:24:55';99450;;;24;34
30343;BME280;17145;49.902;8.680;'2023-06-19 02:27:22';99450;;;24;34
30343;BME280;17145;49.902;8.680;'2023-06-19 02:29:50';99450;;;24;35
30343;BME280;17145;49.902;8.680;'2023-06-19 02:32:18';99440;;;23;35
30343;BME280;17145;49.902;8.680;'2023-06-19 02:34:45';99440;;;24;35
30343;BME280;17145;49.902;8.680;'2023-06-19 02:37:12';99440;;;24;35
30343;BME280;17145;49.902;8.680;'2023-06-19 02:39:40';99440;;;24;36
30343;BME280;17145;49.902;8.680;'2023-06-19 02:42:08';99440;;;23;35
30343;BME280;17145;49.902;8.680;'2023-06-19 02:44:35';99440;;;23;35
30343;BME280;17145;49.902;8.680;'2023-06-19 02:47:04';99440;;;23;35
30343;BME280;17145;49.902;8.680;'2023-06-19 02:49:31';99440;;;23;35
30343;BME280;17145;49.902;8.680;'2023-06-19 02:51:59';99440;;;23;35
30343;BME280;17145;49.902;8.680;'2023-06-19 02:54:26';99450;;;23;35
30343;BME280;17145;49.902;8.680;'2023-06-19 02:56:53';99450;;;23;34
30343;BME280;17145;49.902;8.680;'2023-06-19 02:59:21';99460;;;23;34
30343;BME280;17145;49.902;8.680;'2023-06-19 03:01:48';99460;;;23;34
30343;BME280;17145;49.902;8.680;'2023-06-19 03:04:15';99460;;;23;34
30343;BME280;17145;49.902;8.680;'2023-06-19 03:06:50';99460;;;23;34
30343;BME280;17145;49.902;8.680;'2023-06-19 03:09:20';99460;;;23;34
30343;BME280;17145;49.902;8.680;'2023-06-19 03:11:52';99470;;;23;34
30343;BME280;17145;49.902;8.680;'2023-06-19 03:14:25';99470;;;23;34
30343;BME280;17145;49.902;8.680;'2023-06-19 03:16:53';99480;;;23;35
30343;BME280;17145;49.902;8.680;'2023-06-19 03:19:21';99480;;;23;36
30343;BME280;17145;49.902;8.680;'2023-06-19 03:21:49';99470;;;23;36
30343;BME280;17145;49.902;8.680;'2023-06-19 03:24:16';99460;;;23;35
30343;BME280;17145;49.902;8.680;'2023-06-19 03:26:44';99460;;;23;35
30343;BME280;17145;49.902;8.680;'2023-06-19 03:29:12';99460;;;23;34
30343;BME280;17145;49.902;8.680;'2023-06-19 03:31:45';99460;;;23;34
30343;BME280;17145;49.902;8.680;'2023-06-19 03:34:17';99470;;;23;34
30343;BME280;17145;49.902;8.680;'2023-06-19 03:36:45';99460;;;23;34
30343;BME280;17145;49.902;8.680;'2023-06-19 03:39:14';99460;;;23;34
30343;BME280;17145;49.902;8.680;'2023-06-19 03:41:43';99460;;;23;34
30343;BME280;17145;49.902;8.680;'2023-06-19 03:44:11';99470;;;23;35
30343;BME280;17145;49.902;8.680;'2023-06-19 03:46:38';99470;;;23;35
30343;BME280;17145;49.902;8.680;'2023-06-19 03:49:07';99470;;;23;35
30343;BME280;17145;49.902;8.680;'2023-06-19 03:51:34';99470;;;23;35
30343;BME280;17145;49.902;8.680;'2023-06-19 03:54:02';99480;;;23;35
30343;BME280;17145;49.902;8.680;'2023-06-19 03:56:29';99480;;;23;35
30343;BME280;17145;49.902;8.680;'2023-06-19 03:58:57';99490;;;23;36
30343;BME280;17145;49.902;8.680;'2023-06-19 04:01:24';99480;;;23;36
30343;BME280;17145;49.902;8.680;'2023-06-19 04:03:51';99480;;;22;36
30343;BME280;17145;49.902;8.680;'2023-06-19 04:06:19';99520;;;22;36
30343;BME280;17145;49.902;8.680;'2023-06-19 04:08:46';99530;;;22;37
30343;BME280;17145;49.902;8.680;'2023-06-19 04:11:14';99530;;;23;36
30343;BME280;17145;49.902;8.680;'2023-06-19 04:13:41';99530;;;22;36
30343;BME280;17145;49.902;8.680;'2023-06-19 04:16:09';99540;;;22;36
30343;BME280;17145;49.902;8.680;'2023-06-19 04:18:36';99540;;;22;36
30343;BME280;17145;49.902;8.680;'2023-06-19 04:21:03';99540;;;22;36
30343;BME280;17145;49.902;8.680;'2023-06-19 04:23:31';99550;;;23;36
30343;BME280;17145;49.902;8.680;'2023-06-19 04:25:58';99550;;;23;36
30343;BME280;17145;49.902;8.680;'2023-06-19 04:28:26';99560;;;23;36
30343;BME280;17145;49.902;8.680;'2023-06-19 04:30:54';99550;;;23;36
30343;BME280;17145;49.902;8.680;'2023-06-19 04:33:21';99550;;;22;36
30343;BME280;17145;49.902;8.680;'2023-06-19 04:35:48';99550;;;23;36
30343;BME280;17145;49.902;8.680;'2023-06-19 04:38:16';99550;;;23;36
30343;BME280;17145;49.902;8.680;'2023-06-19 04:40:44';99550;;;23;36
30343;BME280;17145;49.902;8.680;'2023-06-19 04:43:11';99550;;;23;36
30343;BME280;17145;49.902;8.680;'2023-06-19 04:45:38';99560;;;23;36
30343;BME280;17145;49.902;8.680;'2023-06-19 04:48:06';99570;;;23;36
30343;BME280;17145;49.902;8.680;'2023-06-19 04:50:33';99570;;;23;36
30343;BME280;17145;49.902;8.680;'2023-06-19 04:53:00';99580;;;23;36
30343;BME280;17145;49.902;8.680;'2023-06-19 04:55:28';99580;;;23;36
30343;BME280;17145;49.902;8.680;'2023-06-19 04:57:55';99590;;;23;36
30343;BME280;17145;49.902;8.680;'2023-06-19 05:00:23';99590;;;22;36
30343;BME280;17145;49.902;8.680;'2023-06-19 05:02:50';99600;;;22;37
30343;BME280;17145;49.902;8.680;'2023-06-19 05:05:17';99600;;;22;37
30343;BME280;17145;49.902;8.680;'2023-06-19 05:07:45';99590;;;23;37
30343;BME280;17145;49.902;8.680;'2023-06-19 05:10:13';99590;;;22;37
30343;BME280;17145;49.902;8.680;'2023-06-19 05:12:40';99600;;;23;37
30343;BME280;17145;49.902;8.680;'2023-06-19 05:15:08';99600;;;23;37
30343;BME280;17145;49.902;8.680;'2023-06-19 05:17:35';99610;;;23;38
30343;BME280;17145;49.902;8.680;'2023-06-19 05:20:03';99610;;;23;37
30343;BME280;17145;49.902;8.680;'2023-06-19 05:22:31';99620;;;23;37
30343;BME280;17145;49.902;8.680;'2023-06-19 05:24:59';99620;;;23;37
30343;BME280;17145;49.902;8.680;'2023-06-19 05:27:26';99620;;;22;37
30343;BME280;17145;49.902;8.680;'2023-06-19 05:29:53';99620;;;23;37
30343;BME280;17145;49.902;8.680;'2023-06-19 05:32:20';99620;;;23;37
30343;BME280;17145;49.902;8.680;'2023-06-19 05:34:48';99620;;;23;37
30343;BME280;17145;49.902;8.680;'2023-06-19 05:37:15';99630;;;22;37
30343;BME280;17145;49.902;8.680;'2023-06-19 05:39:43';99630;;;23;38
30343;BME280;17145;49.902;8.680;'2023-06-19 05:42:10';99630;;;23;38
30343;BME280;17145;49.902;8.680;'2023-06-19 05:44:37';99630;;;23;38
30343;BME280;17145;49.902;8.680;'2023-06-19 05:47:05';99630;;;23;38
30343;BME280;17145;49.902;8.680;'2023-06-19 05:49:33';99630;;;23;38
30343;BME280;17145;49.902;8.680;'2023-06-19 05:52:00';99640;;;23;38
30343;BME280;17145;49.902;8.680;'2023-06-19 05:54:27';99640;;;23;37
30343;BME280;17145;49.902;8.680;'2023-06-19 05:56:55';99640;;;23;37
30343;BME280;17145;49.902;8.680;'2023-06-19 05:59:22';99640;;;23;37
30343;BME280;17145;49.902;8.680;'2023-06-19 06:01:49';99650;;;23;37
30343;BME280;17145;49.902;8.680;'2023-06-19 06:04:17';99650;;;23;37
30343;BME280;17145;49.902;8.680;'2023-06-19 06:06:44';99650;;;23;37
30343;BME280;17145;49.902;8.680;'2023-06-19 06:09:12';99660;;;23;37
30343;BME280;17145;49.902;8.680;'2023-06-19 06:11:39';99660;;;23;37
30343;BME280;17145;49.902;8.680;'2023-06-19 06:14:07';99660;;;23;37
30343;BME280;17145;49.902;8.680;'2023-06-19 06:16:34';99670;;;23;37
30343;BME280;17145;49.902;8.680;'2023-06-19 06:19:01';99670;;;23;37
30343;BME280;17145;49.902;8.680;'2023-06-19 06:21:29';99680;;;22;37
30343;BME280;17145;49.902;8.680;'2023-06-19 06:23:56';99680;;;23;37
30343;BME280;17145;49.902;8.680;'2023-06-19 06:26:24';99690;;;23;37
30343;BME280;17145;49.902;8.680;'2023-06-19 06:28:51';99690;;;23;38
30343;BME280;17145;49.902;8.680;'2023-06-19 06:31:19';99680;;;23;38
30343;BME280;17145;49.902;8.680;'2023-06-19 06:33:46';99690;;;22;38
30343;BME280;17145;49.902;8.680;'2023-06-19 06:36:14';99700;;;22;38
30343;BME280;17145;49.902;8.680;'2023-06-19 06:38:41';99700;;;23;38
30343;BME280;17145;49.902;8.680;'2023-06-19 06:41:09';99700;;;23;38
30343;BME280;17145;49.902;8.680;'2023-06-19 06:43:36';99700;;;23;38
30343;BME280;17145;49.902;8.680;'2023-06-19 06:46:04';99700;;;23;38
30343;BME280;17145;49.902;8.680;'2023-06-19 06:48:31';99710;;;23;38
30343;BME280;17145;49.902;8.680;'2023-06-19 06:50:59';99700;;;23;39
30343;BME280;17145;49.902;8.680;'2023-06-19 06:53:26';99710;;;23;39
30343;BME280;17145;49.902;8.680;'2023-06-19 06:55:54';99700;;;23;39
30343;BME280;17145;49.902;8.680;'2023-06-19 06:58:21';99710;;;23;39
30343;BME280;17145;49.902;8.680;'2023-06-19 07:00:49';99710;;;23;39
30343;BME280;17145;49.902;8.680;'2023-06-19 07:03:16';99700;;;22;40
30343;BME280;17145;49.902;8.680;'2023-06-19 07:05:44';99720;;;23;39
30343;BME280;17145;49.902;8.680;'2023-06-19 07:08:12';99720;;;23;40
30343;BME280;17145;49.902;8.680;'2023-06-19 07:10:39';99710;;;23;39
30343;BME280;17145;49.902;8.680;'2023-06-19 07:13:07';99720;;;23;40
30343;BME280;17145;49.902;8.680;'2023-06-19 07:15:34';99720;;;23;40
30343;BME280;17145;49.902;8.680;'2023-06-19 07:18:02';99720;;;23;40
30343;BME280;17145;49.902;8.680;'2023-06-19 07:20:29';99720;;;23;40
30343;BME280;17145;49.902;8.680;'2023-06-19 07:22:56';99720;;;23;41
30343;BME280;17145;49.902;8.680;'2023-06-19 07:25:24';99720;;;23;40
30343;BME280;17145;49.902;8.680;'2023-06-19 07:27:51';99720;;;22;41
30343;BME280;17145;49.902;8.680;'2023-06-19 07:30:19';99720;;;22;41
30343;BME280;17145;49.902;8.680;'2023-06-19 07:32:46';99720;;;23;41
30343;BME280;17145;49.902;8.680;'2023-06-19 07:35:14';99730;;;22;42
30343;BME280;17145;49.902;8.680;'2023-06-19 07:37:41';99720;;;22;42
30343;BME280;17145;49.902;8.680;'2023-06-19 07:40:09';99710;;;22;42
30343;BME280;17145;49.902;8.680;'2023-06-19 07:42:36';99700;;;22;42
30343;BME280;17145;49.902;8.680;'2023-06-19 07:45:05';99700;;;23;41
30343;BME280;17145;49.902;8.680;'2023-06-19 07:47:32';99700;;;23;42
30343;BME280;17145;49.902;8.680;'2023-06-19 07:49:59';99710;;;22;42
30343;BME280;17145;49.902;8.680;'2023-06-19 07:52:27';99720;;;22;42
30343;BME280;17145;49.902;8.680;'2023-06-19 07:54:54';99720;;;23;42
30343;BME280;17145;49.902;8.680;'2023-06-19 07:57:22';99720;;;23;42
30343;BME280;17145;49.902;8.680;'2023-06-19 07:59:50';99720;;;23;41
30343;BME280;17145;49.902;8.680;'2023-06-19 08:02:18';99730;;;23;41
30343;BME280;17145;49.902;8.680;'2023-06-19 08:04:45';99730;;;23;41
30343;BME280;17145;49.902;8.680;'2023-06-19 08:07:12';99720;;;23;42
30343;BME280;17145;49.902;8.680;'2023-06-19 08:09:40';99730;;;23;42
30343;BME280;17145;49.902;8.680;'2023-06-19 08:12:08';99730;;;23;42
30343;BME280;17145;49.902;8.680;'2023-06-19 08:14:35';99740;;;23;41
30343;BME280;17145;49.902;8.680;'2023-06-19 08:17:03';99740;;;23;41
30343;BME280;17145;49.902;8.680;'2023-06-19 08:19:30';99750;;;23;41
30343;BME280;17145;49.902;8.680;'2023-06-19 08:21:57';99750;;;23;41
30343;BME280;17145;49.902;8.680;'2023-06-19 08:24:25';99740;;;23;42
30343;BME280;17145;49.902;8.680;'2023-06-19 08:26:52';99760;;;23;41
30343;BME280;17145;49.902;8.680;'2023-06-19 08:29:19';99760;;;23;41
30343;BME280;17145;49.902;8.680;'2023-06-19 08:31:47';99740;;;23;42
30343;BME280;17145;49.902;8.680;'2023-06-19 08:34:14';99740;;;23;42
30343;BME280;17145;49.902;8.680;'2023-06-19 08:36:42';99740;;;23;42
30343;BME280;17145;49.902;8.680;'2023-06-19 08:39:10';99740;;;23;42
30343;BME280;17145;49.902;8.680;'2023-06-19 08:41:37';99740;;;23;42
30343;BME280;17145;49.902;8.680;'2023-06-19 08:44:05';99740;;;23;43
30343;BME280;17145;49.902;8.680;'2023-06-19 08:46:32';99740;;;23;43
30343;BME280;17145;49.902;8.680;'2023-06-19 08:49:00';99750;;;24;42
30343;BME280;17145;49.902;8.680;'2023-06-19 08:51:27';99750;;;23;42
30343;BME280;17145;49.902;8.680;'2023-06-19 08:53:55';99760;;;23;42
30343;BME280;17145;49.902;8.680;'2023-06-19 08:56:22';99760;;;23;43
30343;BME280;17145;49.902;8.680;'2023-06-19 08:58:49';99750;;;23;42
30343;BME280;17145;49.902;8.680;'2023-06-19 09:01:17';99750;;;23;42
30343;BME280;17145;49.902;8.680;'2023-06-19 09:03:44';99740;;;23;42
30343;BME280;17145;49.902;8.680;'2023-06-19 09:06:11';99750;;;23;42
30343;BME280;17145;49.902;8.680;'2023-06-19 09:08:38';99750;;;23;42
30343;BME280;17145;49.902;8.680;'2023-06-19 09:11:06';99760;;;23;42
30343;BME280;17145;49.902;8.680;'2023-06-19 09:13:33';99760;;;23;42
30343;BME280;17145;49.902;8.680;'2023-06-19 09:16:01';99750;;;23;41
30343;BME280;17145;49.902;8.680;'2023-06-19 09:18:28';99760;;;24;42
30343;BME280;17145;49.902;8.680;'2023-06-19 09:20:56';99760;;;24;41
30343;BME280;17145;49.902;8.680;'2023-06-19 09:23:23';99760;;;23;42
30343;BME280;17145;49.902;8.680;'2023-06-19 09:25:51';99750;;;24;42
30343;BME280;17145;49.902;8.680;'2023-06-19 09:28:18';99740;;;24;42
30343;BME280;17145;49.902;8.680;'2023-06-19 09:30:45';99740;;;24;42
30343;BME280;17145;49.902;8.680;'2023-06-19 09:33:13';99750;;;24;41
30343;BME280;17145;49.902;8.680;'2023-06-19 09:35:40';99760;;;24;41
30343;BME280;17145;49.902;8.680;'2023-06-19 09:38:08';99760;;;24;41
30343;BME280;17145;49.902;8.680;'2023-06-19 09:40:35';99760;;;24;41
30343;BME280;17145;49.902;8.680;'2023-06-19 09:43:02';99770;;;24;41
30343;BME280;17145;49.902;8.680;'2023-06-19 09:45:30';99770;;;24;41
30343;BME280;17145;49.902;8.680;'2023-06-19 09:47:58';99770;;;24;41
30343;BME280;17145;49.902;8.680;'2023-06-19 09:50:25';99770;;;24;40
30343;BME280;17145;49.902;8.680;'2023-06-19 09:52:52';99780;;;24;40
30343;BME280;17145;49.902;8.680;'2023-06-19 09:55:20';99780;;;24;41
30343;BME280;17145;49.902;8.680;'2023-06-19 09:57:47';99780;;;24;41
30343;BME280;17145;49.902;8.680;'2023-06-19 10:00:15';99780;;;24;41
30343;BME280;17145;49.902;8.680;'2023-06-19 10:02:43';99780;;;24;40
30343;BME280;17145;49.902;8.680;'2023-06-19 10:05:10';99790;;;24;41
30343;BME280;17145;49.902;8.680;'2023-06-19 10:07:38';99780;;;24;41
30343;BME280;17145;49.902;8.680;'2023-06-19 10:10:07';99790;;;24;42
30343;BME280;17145;49.902;8.680;'2023-06-19 10:12:34';99790;;;24;41
30343;BME280;17145;49.902;8.680;'2023-06-19 10:15:01';99790;;;25;41
30343;BME280;17145;49.902;8.680;'2023-06-19 10:17:29';99800;;;25;41
30343;BME280;17145;49.902;8.680;'2023-06-19 10:19:56';99800;;;24;40
30343;BME280;17145;49.902;8.680;'2023-06-19 10:22:24';99800;;;25;40
30343;BME280;17145;49.902;8.680;'2023-06-19 10:24:51';99810;;;25;41
30343;BME280;17145;49.902;8.680;'2023-06-19 10:27:19';99810;;;24;41
30343;BME280;17145;49.902;8.680;'2023-06-19 10:29:46';99800;;;24;41
30343;BME280;17145;49.902;8.680;'2023-06-19 10:32:13';99810;;;24;41
30343;BME280;17145;49.902;8.680;'2023-06-19 10:34:41';99800;;;24;41
30343;BME280;17145;49.902;8.680;'2023-06-19 10:37:08';99810;;;24;42
30343;BME280;17145;49.902;8.680;'2023-06-19 10:39:36';99820;;;24;42
30343;BME280;17145;49.902;8.680;'2023-06-19 10:42:04';99800;;;24;42
30343;BME280;17145;49.902;8.680;'2023-06-19 10:44:33';99810;;;24;42
30343;BME280;17145;49.902;8.680;'2023-06-19 10:47:02';99820;;;24;42
30343;BME280;17145;49.902;8.680;'2023-06-19 10:49:30';99820;;;24;42
30343;BME280;17145;49.902;8.680;'2023-06-19 10:51:57';99820;;;25;41
30343;BME280;17145;49.902;8.680;'2023-06-19 10:54:24';99820;;;25;41
30343;BME280;17145;49.902;8.680;'2023-06-19 10:56:52';99820;;;25;41
30343;BME280;17145;49.902;8.680;'2023-06-19 10:59:20';99810;;;25;40
30343;BME280;17145;49.902;8.680;'2023-06-19 11:01:49';99810;;;25;40
30343;BME280;17145;49.902;8.680;'2023-06-19 11:04:18';99810;;;25;40
30343;BME280;17145;49.902;8.680;'2023-06-19 11:06:49';99810;;;26;39
30343;BME280;17145;49.902;8.680;'2023-06-19 11:09:18';99820;;;26;39
30343;BME280;17145;49.902;8.680;'2023-06-19 11:11:57';99810;;;26;38
30343;BME280;17145;49.902;8.680;'2023-06-19 11:14:32';99820;;;26;38
30343;BME280;17145;49.902;8.680;'2023-06-19 11:17:01';99810;;;26;38
30343;BME280;17145;49.902;8.680;'2023-06-19 11:19:28';99800;;;27;37
30343;BME280;17145;49.902;8.680;'2023-06-19 11:22:00';99810;;;27;37
30343;BME280;17145;49.902;8.680;'2023-06-19 11:24:33';99820;;;27;37
30343;BME280;17145;49.902;8.680;'2023-06-19 11:27:06';99820;;;26;37
30343;BME280;17145;49.902;8.680;'2023-06-19 11:29:36';99820;;;26;37
30343;BME280;17145;49.902;8.680;'2023-06-19 11:32:14';99810;;;26;37
30343;BME280;17145;49.902;8.680;'2023-06-19 11:34:42';99820;;;26;37
30343;BME280;17145;49.902;8.680;'2023-06-19 11:37:09';99820;;;27;37
30343;BME280;17145;49.902;8.680;'2023-06-19 11:39:38';99820;;;26;37
30343;BME280;17145;49.902;8.680;'2023-06-19 11:42:08';99820;;;26;36
30343;BME280;17145;49.902;8.680;'2023-06-19 11:44:40';99820;;;26;37
30343;BME280;17145;49.902;8.680;'2023-06-19 11:47:14';99820;;;27;38
30343;BME280;17145;49.902;8.680;'2023-06-19 11:49:41';99820;;;27;37
30343;BME280;17145;49.902;8.680;'2023-06-19 11:52:09';99820;;;26;37
30343;BME280;17145;49.902;8.680;'2023-06-19 11:54:37';99810;;;27;37
30343;BME280;17145;49.902;8.680;'2023-06-19 11:57:06';99810;;;27;37
30343;BME280;17145;49.902;8.680;'2023-06-19 11:59:34';99810;;;27;36
30343;BME280;17145;49.902;8.680;'2023-06-19 12:02:01';99810;;;27;36
30343;BME280;17145;49.902;8.680;'2023-06-19 12:04:29';99800;;;27;36
30343;BME280;17145;49.902;8.680;'2023-06-19 12:06:56';99810;;;27;36
30343;BME280;17145;49.902;8.680;'2023-06-19 12:09:23';99800;;;27;35
30343;BME280;17145;49.902;8.680;'2023-06-19 12:11:52';99810;;;27;35
30343;BME280;17145;49.902;8.680;'2023-06-19 12:14:21';99810;;;27;35
30343;BME280;17145;49.902;8.680;'2023-06-19 12:16:48';99800;;;27;34
30343;BME280;17145;49.902;8.680;'2023-06-19 12:19:17';99810;;;27;35
30343;BME280;17145;49.902;8.680;'2023-06-19 12:21:46';99810;;;27;34
30343;BME280;17145;49.902;8.680;'2023-06-19 12:24:16';99810;;;27;35
30343;BME280;17145;49.902;8.680;'2023-06-19 12:26:43';99800;;;27;34
30343;BME280;17145;49.902;8.680;'2023-06-19 12:29:15';99810;;;27;34
30343;BME280;17145;49.902;8.680;'2023-06-19 12:31:43';99810;;;27;34
30343;BME280;17145;49.902;8.680;'2023-06-19 12:34:10';99810;;;27;34
30343;BME280;17145;49.902;8.680;'2023-06-19 12:36:38';99800;;;27;33
30343;BME280;17145;49.902;8.680;'2023-06-19 12:39:05';99800;;;28;34
30343;BME280;17145;49.902;8.680;'2023-06-19 12:41:32';99800;;;28;34
30343;BME280;17145;49.902;8.680;'2023-06-19 12:44:03';99800;;;28;33
30343;BME280;17145;49.902;8.680;'2023-06-19 12:46:32';99800;;;28;33
30343;BME280;17145;49.902;8.680;'2023-06-19 12:49:00';99790;;;28;33
30343;BME280;17145;49.902;8.680;'2023-06-19 12:51:28';99790;;;27;34
30343;BME280;17145;49.902;8.680;'2023-06-19 12:53:56';99790;;;27;34
30343;BME280;17145;49.902;8.680;'2023-06-19 12:56:25';99790;;;28;34
30343;BME280;17145;49.902;8.680;'2023-06-19 12:58:57';99780;;;28;34
30343;BME280;17145;49.902;8.680;'2023-06-19 13:01:32';99790;;;28;34
30343;BME280;17145;49.902;8.680;'2023-06-19 13:04:01';99790;;;27;34
30343;BME280;17145;49.902;8.680;'2023-06-19 13:06:29';99790;;;27;34
30343;BME280;17145;49.902;8.680;'2023-06-19 13:08:56';99800;;;27;34
30343;BME280;17145;49.902;8.680;'2023-06-19 13:11:29';99810;;;27;34
30343;BME280;17145;49.902;8.680;'2023-06-19 13:13:56';99790;;;27;35
30343;BME280;17145;49.902;8.680;'2023-06-19 13:16:24';99790;;;27;35
30343;BME280;17145;49.902;8.680;'2023-06-19 13:18:56';99780;;;27;35
30343;BME280;17145;49.902;8.680;'2023-06-19 13:21:30';99790;;;27;34
30343;BME280;17145;49.902;8.680;'2023-06-19 13:23:58';99780;;;27;34
30343;BME280;17145;49.902;8.680;'2023-06-19 13:26:25';99770;;;27;34
30343;BME280;17145;49.902;8.680;'2023-06-19 13:28:53';99780;;;27;34
30343;BME280;17145;49.902;8.680;'2023-06-19 13:31:25';99780;;;27;34
30343;BME280;17145;49.902;8.680;'2023-06-19 13:33:58';99770;;;27;34
30343;BME280;17145;49.902;8.680;'2023-06-19 13:36:25';99770;;;27;34
30343;BME280;17145;49.902;8.680;'2023-06-19 13:38:53';99770;;;27;34
30343;BME280;17145;49.902;8.680;'2023-06-19 13:41:26';99770;;;27;34
30343;BME280;17145;49.902;8.680;'2023-06-19 13:43:59';99770;;;27;33
30343;BME280;17145;49.902;8.680;'2023-06-19 13:46:30';99770;;;27;32
30343;BME280;17145;49.902;8.680;'2023-06-19 13:49:08';99760;;;28;33
30343;BME280;17145;49.902;8.680;'2023-06-19 13:51:36';99760;;;28;34
30343;BME280;17145;49.902;8.680;'2023-06-19 13:54:06';99760;;;28;33
30343;BME280;17145;49.902;8.680;'2023-06-19 13:56:34';99770;;;28;32
30343;BME280;17145;49.902;8.680;'2023-06-19 13:59:01';99770;;;28;32
30343;BME280;17145;49.902;8.680;'2023-06-19 14:01:28';99770;;;28;31
30343;BME280;17145;49.902;8.680;'2023-06-19 14:03:56';99770;;;27;32
30343;BME280;17145;49.902;8.680;'2023-06-19 14:06:23';99760;;;28;32
30343;BME280;17145;49.902;8.680;'2023-06-19 14:08:50';99760;;;28;31
30343;BME280;17145;49.902;8.680;'2023-06-19 14:11:18';99760;;;29;31
30343;BME280;17145;49.902;8.680;'2023-06-19 14:13:45';99750;;;29;30
30343;BME280;17145;49.902;8.680;'2023-06-19 14:16:14';99740;;;29;30
30343;BME280;17145;49.902;8.680;'2023-06-19 14:18:42';99750;;;30;30
30343;BME280;17145;49.902;8.680;'2023-06-19 14:21:09';99750;;;30;29
30343;BME280;17145;49.902;8.680;'2023-06-19 14:23:36';99740;;;30;28
30343;BME280;17145;49.902;8.680;'2023-06-19 14:26:04';99740;;;29;28
30343;BME280;17145;49.902;8.680;'2023-06-19 14:28:32';99740;;;29;29
30343;BME280;17145;49.902;8.680;'2023-06-19 14:30:59';99740;;;29;29
30343;BME280;17145;49.902;8.680;'2023-06-19 14:33:27';99740;;;29;27
30343;BME280;17145;49.902;8.680;'2023-06-19 14:35:54';99730;;;29;28
30343;BME280;17145;49.902;8.680;'2023-06-19 14:38:22';99730;;;29;29
30343;BME280;17145;49.902;8.680;'2023-06-19 14:40:49';99730;;;29;29
30343;BME280;17145;49.902;8.680;'2023-06-19 14:43:17';99730;;;29;30
30343;BME280;17145;49.902;8.680;'2023-06-19 14:45:44';99730;;;29;29
30343;BME280;17145;49.902;8.680;'2023-06-19 14:48:12';99730;;;30;28
30343;BME280;17145;49.902;8.680;'2023-06-19 14:50:39';99730;;;29;28
30343;BME280;17145;49.902;8.680;'2023-06-19 14:53:07';99730;;;29;29
30343;BME280;17145;49.902;8.680;'2023-06-19 14:55:34';99720;;;30;28
30343;BME280;17145;49.902;8.680;'2023-06-19 14:58:01';99730;;;30;29
30343;BME280;17145;49.902;8.680;'2023-06-19 15:00:29';99730;;;30;28
30343;BME280;17145;49.902;8.680;'2023-06-19 15:02:56';99730;;;30;27
30343;BME280;17145;49.902;8.680;'2023-06-19 15:05:24';99730;;;29;28
30343;BME280;17145;49.902;8.680;'2023-06-19 15:07:51';99730;;;30;29
30343;BME280;17145;49.902;8.680;'2023-06-19 15:10:19';99720;;;30;28
30343;BME280;17145;49.902;8.680;'2023-06-19 15:12:46';99720;;;30;29
30343;BME280;17145;49.902;8.680;'2023-06-19 15:15:14';99720;;;30;27
30343;BME280;17145;49.902;8.680;'2023-06-19 15:17:41';99720;;;30;27
30343;BME280;17145;49.902;8.680;'2023-06-19 15:20:09';99720;;;30;27
30343;BME280;17145;49.902;8.680;'2023-06-19 15:22:36';99720;;;30;28
30343;BME280;17145;49.902;8.680;'2023-06-19 15:25:04';99720;;;30;28
30343;BME280;17145;49.902;8.680;'2023-06-19 15:27:32';99720;;;30;27
30343;BME280;17145;49.902;8.680;'2023-06-19 15:30:01';99720;;;30;28
30343;BME280;17145;49.902;8.680;'2023-06-19 15:32:28';99720;;;30;28
30343;BME280;17145;49.902;8.680;'2023-06-19 15:34:55';99720;;;30;27
30343;BME280;17145;49.902;8.680;'2023-06-19 15:37:23';99720;;;31;27
30343;BME280;17145;49.902;8.680;'2023-06-19 15:39:50';99720;;;31;28
30343;BME280;17145;49.902;8.680;'2023-06-19 15:42:17';99710;;;31;27
30343;BME280;17145;49.902;8.680;'2023-06-19 15:44:45';99700;;;31;27
30343;BME280;17145;49.902;8.680;'2023-06-19 15:47:13';99700;;;31;27
30343;BME280;17145;49.902;8.680;'2023-06-19 15:49:40';99700;;;31;26
30343;BME280;17145;49.902;8.680;'2023-06-19 15:52:07';99700;;;31;27
30343;BME280;17145;49.902;8.680;'2023-06-19 15:54:36';99700;;;31;26
30343;BME280;17145;49.902;8.680;'2023-06-19 15:57:03';99690;;;32;26
30343;BME280;17145;49.902;8.680;'2023-06-19 15:59:31';99680;;;32;25
30343;BME280;17145;49.902;8.680;'2023-06-19 16:01:58';99680;;;32;25
30343;BME280;17145;49.902;8.680;'2023-06-19 16:04:26';99670;;;33;24
30343;BME280;17145;49.902;8.680;'2023-06-19 16:06:53';99670;;;33;24
30343;BME280;17145;49.902;8.680;'2023-06-19 16:09:20';99670;;;32;24
30343;BME280;17145;49.902;8.680;'2023-06-19 16:11:48';99670;;;32;25
30343;BME280;17145;49.902;8.680;'2023-06-19 16:14:15';99660;;;32;25
30343;BME280;17145;49.902;8.680;'2023-06-19 16:16:43';99660;;;32;25
30343;BME280;17145;49.902;8.680;'2023-06-19 16:19:10';99660;;;32;25
30343;BME280;17145;49.902;8.680;'2023-06-19 16:21:37';99650;;;32;25